createdAt,value
2018-02-06T00:00:05.570Z,-4.13
2018-02-06T00:01:11.545Z,-4.09
2018-02-06T00:02:17.431Z,-4.09
2018-02-06T00:03:23.397Z,-4.08
2018-02-06T00:04:29.408Z,-4.07
2018-02-06T00:05:34.775Z,-4.04
2018-02-06T00:06:40.678Z,-4.02
2018-02-06T00:07:47.172Z,-4.00
2018-02-06T00:08:53.057Z,-3.94
2018-02-06T00:09:58.497Z,-3.93
2018-02-06T00:11:04.410Z,-3.87
2018-02-06T00:12:10.837Z,-3.84
2018-02-06T00:13:16.771Z,-3.80
2018-02-06T00:14:22.797Z,-3.76
2018-02-06T00:15:28.679Z,-3.75
2018-02-06T00:16:34.178Z,-3.73
2018-02-06T00:17:40.565Z,-3.76
2018-02-06T00:18:46.046Z,-3.77
2018-02-06T00:19:51.926Z,-3.76
2018-02-06T00:20:58.377Z,-3.76
2018-02-06T00:22:04.301Z,-3.76
2018-02-06T00:23:09.758Z,-3.76
2018-02-06T00:24:16.250Z,-3.74
2018-02-06T00:25:21.580Z,-3.71
2018-02-06T00:26:28.014Z,-3.70
2018-02-06T00:27:33.510Z,-3.65
2018-02-06T00:28:39.431Z,-3.62
2018-02-06T00:29:45.902Z,-3.63
2018-02-06T00:30:51.793Z,-3.65
2018-02-06T00:33:03.658Z,-3.61
2018-02-06T00:34:09.678Z,-3.59
2018-02-06T00:35:15.062Z,-3.58
2018-02-06T00:36:20.982Z,-3.61
2018-02-06T00:37:27.507Z,-3.59
2018-02-06T00:38:33.348Z,-3.59
2018-02-06T00:39:38.847Z,-3.59
2018-02-06T00:40:45.296Z,-3.61
2018-02-06T00:41:50.713Z,-3.64
2018-02-06T00:42:56.696Z,-3.67
2018-02-06T00:44:03.072Z,-3.65
2018-02-06T00:45:09.029Z,-3.59
2018-02-06T00:46:14.439Z,-3.56
2018-02-06T00:47:20.436Z,-3.54
2018-02-06T00:48:26.855Z,-3.53
2018-02-06T00:49:32.280Z,-3.52
2018-02-06T00:50:38.758Z,-3.50
2018-02-06T00:51:44.672Z,-3.50
2018-02-06T00:52:50.654Z,-3.53
2018-02-06T00:53:56.508Z,-3.59
2018-02-06T00:55:02.495Z,-3.61
2018-02-06T00:56:08.396Z,-3.65
2018-02-06T00:57:13.912Z,-3.69
2018-02-06T00:58:20.292Z,-3.71
2018-02-06T00:59:26.259Z,-3.70
2018-02-06T01:00:32.187Z,-3.70
2018-02-06T01:01:38.198Z,-3.70
2018-02-06T01:02:43.565Z,-3.70
2018-02-06T01:03:49.483Z,-3.68
2018-02-06T01:04:55.946Z,-3.65
2018-02-06T01:06:01.892Z,-3.59
2018-02-06T01:07:07.830Z,-3.57
2018-02-06T01:08:13.718Z,-3.57
2018-02-06T01:09:19.234Z,-3.58
2018-02-06T01:10:25.727Z,-3.57
2018-02-06T01:11:31.582Z,-3.56
2018-02-06T01:12:37.513Z,-3.53
2018-02-06T01:13:43.470Z,-3.48
2018-02-06T01:14:49.417Z,-3.43
2018-02-06T01:15:55.325Z,-3.35
2018-02-06T01:17:01.257Z,-3.31
2018-02-06T01:18:06.698Z,-3.27
2018-02-06T01:19:13.159Z,-3.23
2018-02-06T01:20:18.593Z,-3.19
2018-02-06T01:21:25.012Z,-3.18
2018-02-06T01:22:30.466Z,-3.18
2018-02-06T01:23:36.448Z,-3.20
2018-02-06T01:24:42.395Z,-3.21
2018-02-06T01:25:48.307Z,-3.24
2018-02-06T01:26:54.783Z,-3.29
2018-02-06T01:28:00.762Z,-3.32
2018-02-06T01:29:06.621Z,-3.34
2018-02-06T01:30:12.706Z,-3.38
2018-02-06T01:31:18.003Z,-3.42
2018-02-06T01:32:24.477Z,-3.46
2018-02-06T01:33:30.398Z,-3.48
2018-02-06T01:34:36.421Z,-3.50
2018-02-06T01:35:42.323Z,-3.50
2018-02-06T01:36:48.299Z,-3.50
2018-02-06T01:37:54.252Z,-3.49
2018-02-06T01:39:00.218Z,-3.50
2018-02-06T01:40:05.671Z,-3.50
2018-02-06T01:41:12.004Z,-3.47
2018-02-06T01:42:17.457Z,-3.44
2018-02-06T01:43:23.943Z,-3.43
2018-02-06T01:44:29.848Z,-3.41
2018-02-06T01:45:35.804Z,-3.39
2018-02-06T01:46:41.234Z,-3.35
2018-02-06T01:47:47.673Z,-3.33
2018-02-06T01:48:53.675Z,-3.31
2018-02-06T01:49:59.633Z,-3.29
2018-02-06T01:51:05.516Z,-3.27
2018-02-06T01:52:10.968Z,-3.27
2018-02-06T01:53:17.392Z,-3.25
2018-02-06T01:54:22.870Z,-3.25
2018-02-06T01:55:28.823Z,-3.25
2018-02-06T01:56:34.832Z,-3.21
2018-02-06T01:57:40.693Z,-3.21
2018-02-06T01:58:46.714Z,-3.21
2018-02-06T01:59:53.067Z,-3.20
2018-02-06T02:00:59.054Z,-3.18
2018-02-06T02:02:04.469Z,-3.18
2018-02-06T02:03:10.471Z,-3.16
2018-02-06T02:04:16.422Z,-3.15
2018-02-06T02:05:22.853Z,-3.14
2018-02-06T02:06:28.260Z,-3.12
2018-02-06T02:07:34.744Z,-3.11
2018-02-06T02:08:40.202Z,-3.10
2018-02-06T02:09:46.636Z,-3.06
2018-02-06T02:10:52.134Z,-3.04
2018-02-06T02:11:58.507Z,-3.06
2018-02-06T02:13:04.495Z,-3.05
2018-02-06T02:14:09.939Z,-3.03
2018-02-06T02:15:16.403Z,-3.00
2018-02-06T02:16:22.275Z,-2.96
2018-02-06T02:17:28.292Z,-2.95
2018-02-06T02:18:33.691Z,-2.96
2018-02-06T02:19:39.673Z,-2.97
2018-02-06T02:20:45.635Z,-2.96
2018-02-06T02:21:52.054Z,-2.94
2018-02-06T02:22:58.066Z,-2.92
2018-02-06T02:24:03.996Z,-2.90
2018-02-06T02:25:09.960Z,-2.89
2018-02-06T02:26:15.943Z,-2.89
2018-02-06T02:27:21.872Z,-2.90
2018-02-06T02:28:27.316Z,-2.90
2018-02-06T02:29:33.790Z,-2.89
2018-02-06T02:30:39.489Z,-2.89
2018-02-06T02:31:45.689Z,-2.87
2018-02-06T02:32:51.125Z,-2.85
2018-02-06T02:33:57.584Z,-2.85
2018-02-06T02:35:03.028Z,-2.85
2018-02-06T02:36:09.495Z,-2.85
2018-02-06T02:37:14.936Z,-2.84
2018-02-06T02:38:21.387Z,-2.82
2018-02-06T02:39:26.826Z,-2.82
2018-02-06T02:40:32.805Z,-2.84
2018-02-06T02:41:38.760Z,-2.86
2018-02-06T04:39:15.211Z,-4.16
2018-02-06T04:40:21.190Z,-4.19
2018-02-06T04:42:33.079Z,-4.16
2018-02-06T04:43:38.466Z,-4.19
2018-02-06T04:44:44.858Z,-4.16
2018-02-06T04:45:50.876Z,-4.15
2018-02-06T04:46:56.711Z,-4.14
2018-02-06T04:48:02.232Z,-4.10
2018-02-06T04:49:08.622Z,-4.05
2018-02-06T04:50:14.045Z,-4.00
2018-02-06T04:51:20.473Z,-3.92
2018-02-06T04:52:26.388Z,-3.84
2018-02-06T04:53:32.373Z,-3.78
2018-02-06T04:54:38.290Z,-3.74
2018-02-06T04:55:44.199Z,-3.69
2018-02-06T04:56:49.735Z,-3.65
2018-02-06T04:57:56.048Z,-3.59
2018-02-06T04:59:01.493Z,-3.55
2018-02-06T05:00:07.976Z,-3.52
2018-02-06T05:01:13.874Z,-3.48
2018-02-06T05:02:19.869Z,-3.44
2018-02-06T05:03:25.830Z,-3.42
2018-02-06T05:04:31.759Z,-3.40
2018-02-06T05:05:37.668Z,-3.38
2018-02-06T05:06:43.048Z,-3.36
2018-02-06T05:07:49.530Z,-3.34
2018-02-06T05:08:55.449Z,-3.32
2018-02-06T05:10:01.014Z,-3.31
2018-02-06T05:11:06.829Z,-3.29
2018-02-06T05:12:12.792Z,-3.28
2018-02-06T05:13:19.223Z,-3.27
2018-02-06T05:14:25.210Z,-3.23
2018-02-06T05:15:30.652Z,-3.19
2018-02-06T05:16:36.604Z,-3.15
2018-02-06T05:17:42.996Z,-3.14
2018-02-06T05:18:48.979Z,-3.11
2018-02-06T05:19:54.536Z,-3.09
2018-02-06T05:21:00.838Z,-3.06
2018-02-06T05:23:12.717Z,-2.98
2018-02-06T05:24:18.669Z,-2.94
2018-02-06T05:25:24.176Z,-2.93
2018-02-06T05:26:30.140Z,-2.91
2018-02-06T05:27:36.565Z,-2.91
2018-02-06T05:28:41.978Z,-2.91
2018-02-06T05:29:47.898Z,-2.89
2018-02-06T05:30:53.885Z,-2.86
2018-02-06T05:32:00.313Z,-2.84
2018-02-06T05:33:05.763Z,-2.82
2018-02-06T05:34:12.348Z,-2.79
2018-02-06T05:35:17.676Z,-2.78
2018-02-06T05:36:23.627Z,-2.77
2018-02-06T05:37:29.663Z,-2.72
2018-02-06T05:39:42.032Z,-2.64
2018-02-06T05:40:47.449Z,-2.66
2018-02-06T05:41:53.874Z,-2.67
2018-02-06T05:42:59.366Z,-2.70
2018-02-06T05:44:05.808Z,-2.71
2018-02-06T05:45:11.851Z,-2.75
2018-02-06T05:46:17.760Z,-2.78
2018-02-06T05:47:23.728Z,-2.79
2018-02-06T05:48:29.656Z,-2.79
2018-02-06T05:49:35.591Z,-2.81
2018-02-06T05:50:41.079Z,-2.82
2018-02-06T05:51:47.068Z,-2.82
2018-02-06T05:52:54.440Z,-2.82
2018-02-06T05:53:59.014Z,-2.83
2018-02-06T05:55:05.362Z,-2.82
2018-02-06T05:56:11.339Z,-2.81
2018-02-06T05:57:17.313Z,-2.81
2018-02-06T05:58:23.284Z,-2.80
2018-02-06T05:59:28.700Z,-2.80
2018-02-06T06:00:34.665Z,-2.80
2018-02-06T06:01:40.603Z,-2.80
2018-02-06T06:02:46.573Z,-2.80
2018-02-06T06:03:53.014Z,-2.80
2018-02-06T06:04:58.508Z,-2.81
2018-02-06T06:06:04.960Z,-2.81
2018-02-06T06:07:10.925Z,-2.80
2018-02-06T06:08:16.863Z,-2.81
2018-02-06T06:09:22.847Z,-2.82
2018-02-06T06:10:28.305Z,-2.82
2018-02-06T06:11:34.744Z,-2.81
2018-02-06T06:12:40.680Z,-2.82
2018-02-06T06:13:46.633Z,-2.82
2018-02-06T06:14:52.119Z,-2.82
2018-02-06T06:15:58.569Z,-2.81
2018-02-06T06:17:04.020Z,-2.82
2018-02-06T06:18:10.037Z,-2.81
2018-02-06T06:19:16.098Z,-2.80
2018-02-06T06:20:22.536Z,-2.80
2018-02-06T06:21:27.887Z,-2.80
2018-02-06T06:22:34.327Z,-2.80
2018-02-06T06:24:45.739Z,-2.81
2018-02-06T06:25:51.764Z,-2.81
2018-02-06T06:26:58.147Z,-2.81
2018-02-06T06:28:04.138Z,-2.80
2018-02-06T06:29:10.180Z,-2.80
2018-02-06T06:30:16.046Z,-2.78
2018-02-06T06:31:22.083Z,-2.79
2018-02-06T06:32:28.059Z,-2.78
2018-02-06T06:33:34.001Z,-2.76
2018-02-06T06:34:39.957Z,-2.76
2018-02-06T06:35:45.846Z,-2.75
2018-02-06T06:36:51.367Z,-2.74
2018-02-06T06:37:57.747Z,-2.71
2018-02-06T06:39:03.703Z,-2.70
2018-02-06T06:40:09.707Z,-2.69
2018-02-06T06:41:15.651Z,-2.68
2018-02-06T06:42:21.600Z,-2.67
2018-02-06T06:43:27.580Z,-2.66
2018-02-06T06:44:33.159Z,-2.64
2018-02-06T06:45:39.608Z,-2.64
2018-02-06T06:46:45.494Z,-2.63
2018-02-06T06:47:50.918Z,-2.63
2018-02-06T06:48:57.418Z,-2.61
2018-02-06T06:50:03.439Z,-2.60
2018-02-06T06:51:08.891Z,-2.57
2018-02-06T06:52:15.420Z,-2.55
2018-02-06T06:53:21.307Z,-2.54
2018-02-06T06:54:27.405Z,-2.52
2018-02-06T06:55:32.719Z,-2.51
2018-02-06T06:56:39.180Z,-2.50
2018-02-06T06:57:44.582Z,-2.49
2018-02-06T06:58:51.146Z,-2.48
2018-02-06T06:59:57.051Z,-2.47
2018-02-06T07:01:03.045Z,-2.46
2018-02-06T07:02:08.947Z,-2.45
2018-02-06T07:03:14.402Z,-2.44
2018-02-06T07:04:20.887Z,-2.43
2018-02-06T07:05:26.975Z,-2.43
2018-02-06T07:07:38.866Z,-2.42
2018-02-06T07:08:44.318Z,-2.42
2018-02-06T07:09:50.234Z,-2.40
2018-02-06T07:10:56.314Z,-2.38
2018-02-06T07:12:02.704Z,-2.36
2018-02-06T07:13:08.127Z,-2.35
2018-02-06T07:14:14.150Z,-2.32
2018-02-06T07:15:20.580Z,-2.31
2018-02-06T07:16:26.076Z,-2.29
2018-02-06T07:17:32.533Z,-2.28
2018-02-06T07:18:38.454Z,-2.27
2018-02-06T07:19:43.961Z,-2.27
2018-02-06T07:20:50.531Z,-2.27
2018-02-06T07:21:56.446Z,-2.27
2018-02-06T07:23:02.345Z,-2.25
2018-02-06T07:25:13.841Z,-2.24
2018-02-06T07:26:19.780Z,-2.22
2018-02-06T07:27:26.324Z,-2.21
2018-02-06T07:28:32.417Z,-2.20
2018-02-06T07:29:38.268Z,-2.19
2018-02-06T07:30:44.164Z,-2.16
2018-02-06T07:31:50.144Z,-2.14
2018-02-06T07:32:55.623Z,-2.13
2018-02-06T07:34:01.599Z,-2.12
2018-02-06T07:35:08.504Z,-2.11
2018-02-06T07:36:14.125Z,-2.12
2018-02-06T07:37:19.509Z,-2.13
2018-02-06T07:38:26.014Z,-2.13
2018-02-06T07:39:31.978Z,-2.14
2018-02-06T07:40:37.542Z,-2.14
2018-02-06T07:41:43.406Z,-2.14
2018-02-06T07:42:49.371Z,-2.14
2018-02-06T07:43:55.835Z,-2.14
2018-02-06T07:45:01.811Z,-2.15
2018-02-06T07:46:07.829Z,-2.16
2018-02-06T07:47:13.365Z,-2.14
2018-02-06T07:48:19.833Z,-2.16
2018-02-06T07:49:25.841Z,-2.16
2018-02-06T07:50:31.712Z,-2.16
2018-02-06T07:51:37.724Z,-2.13
2018-02-06T07:54:55.180Z,-2.12
2018-02-06T07:56:01.234Z,-2.06
2018-02-06T07:57:07.636Z,-1.99
2018-02-06T07:58:13.564Z,-1.96
2018-02-06T07:59:19.579Z,-1.89
2018-02-06T08:00:25.049Z,-1.80
2018-02-06T08:01:31.586Z,-1.71
2018-02-06T08:02:36.992Z,-1.60
2018-02-06T08:03:43.032Z,-1.49
2018-02-06T08:04:49.503Z,-1.38
2018-02-06T08:05:55.036Z,-1.28
2018-02-06T08:07:00.988Z,-1.20
2018-02-06T08:08:07.432Z,-1.12
2018-02-06T08:09:12.924Z,-1.02
2018-02-06T08:10:19.060Z,-0.95
2018-02-06T08:11:25.583Z,-0.88
2018-02-06T08:12:31.427Z,-0.83
2018-02-06T08:13:37.466Z,-0.75
2018-02-06T08:14:43.466Z,-0.71
2018-02-06T08:15:49.532Z,-0.66
2018-02-06T08:16:55.464Z,-0.61
2018-02-06T08:18:00.929Z,-0.55
2018-02-06T08:19:07.449Z,-0.52
2018-02-06T08:20:13.491Z,-0.48
2018-02-06T08:21:19.510Z,-0.45
2018-02-06T08:22:25.471Z,-0.43
2018-02-06T08:23:31.116Z,-0.41
2018-02-06T08:24:36.993Z,-0.45
2018-02-06T08:25:43.005Z,-0.46
2018-02-06T08:26:49.004Z,-0.47
2018-02-06T08:27:55.018Z,-0.49
2018-02-06T08:29:01.592Z,-0.49
2018-02-06T08:30:07.523Z,-0.48
2018-02-06T08:31:13.619Z,-0.43
2018-02-06T08:32:19.641Z,-0.31
2018-02-06T08:33:25.253Z,-0.19
2018-02-06T08:34:31.586Z,-0.07
2018-02-06T08:35:37.145Z,0.01
2018-02-06T08:36:43.216Z,0.10
2018-02-06T08:37:49.739Z,0.19
2018-02-06T08:38:55.197Z,0.26
2018-02-06T08:40:01.713Z,0.31
2018-02-06T08:41:07.855Z,0.36
2018-02-06T08:42:13.335Z,0.42
2018-02-06T08:43:19.822Z,0.48
2018-02-06T08:44:25.870Z,0.52
2018-02-06T08:45:31.925Z,0.53
2018-02-06T08:46:37.914Z,0.52
2018-02-06T08:47:43.932Z,0.46
2018-02-06T08:48:49.948Z,0.43
2018-02-06T08:49:56.101Z,0.40
2018-02-06T08:51:02.066Z,0.36
2018-02-06T08:52:08.117Z,0.31
2018-02-06T08:53:14.148Z,0.30
2018-02-06T08:54:20.224Z,0.28
2018-02-06T08:55:26.206Z,0.28
2018-02-06T08:56:32.227Z,0.27
2018-02-06T08:57:37.798Z,0.27
2018-02-06T08:58:44.258Z,0.27
2018-02-06T08:59:49.804Z,0.28
2018-02-06T09:00:55.902Z,0.25
2018-02-06T09:02:02.419Z,0.21
2018-02-06T09:03:08.485Z,0.18
2018-02-06T09:04:14.461Z,0.21
2018-02-06T09:05:19.966Z,0.29
2018-02-06T09:06:26.046Z,0.39
2018-02-06T09:07:32.608Z,0.48
2018-02-06T09:08:38.117Z,0.57
2018-02-06T09:09:45.158Z,0.60
2018-02-06T09:10:50.168Z,0.63
2018-02-06T09:13:02.746Z,0.67
2018-02-06T09:14:08.758Z,0.68
2018-02-06T09:15:14.857Z,0.73
2018-02-06T09:16:20.874Z,0.81
2018-02-06T09:17:26.933Z,0.90
2018-02-06T09:18:32.952Z,1.00
2018-02-06T09:19:38.494Z,1.15
2018-02-06T09:20:44.575Z,1.38
2018-02-06T09:21:50.597Z,1.61
2018-02-06T09:22:57.190Z,1.78
2018-02-06T09:24:02.712Z,1.88
2018-02-06T09:25:09.265Z,1.83
2018-02-06T09:26:15.388Z,1.69
2018-02-06T09:27:21.472Z,1.64
2018-02-06T09:28:27.503Z,1.64
2018-02-06T09:29:33.528Z,1.56
2018-02-06T09:30:39.607Z,1.50
2018-02-06T09:31:45.669Z,1.48
2018-02-06T09:32:51.769Z,1.51
2018-02-06T09:33:57.826Z,1.55
2018-02-06T09:35:03.895Z,1.63
2018-02-06T09:36:10.949Z,1.66
2018-02-06T09:37:16.020Z,1.68
2018-02-06T09:38:22.131Z,1.78
2018-02-06T09:39:28.210Z,1.90
2018-02-06T09:40:34.252Z,1.99
2018-02-06T09:41:39.836Z,2.09
2018-02-06T09:42:45.916Z,2.15
2018-02-06T09:43:51.951Z,2.17
2018-02-06T09:44:58.519Z,2.18
2018-02-06T09:46:04.627Z,2.21
2018-02-06T09:47:10.709Z,2.25
2018-02-06T09:48:16.350Z,2.32
2018-02-06T09:49:22.402Z,2.38
2018-02-06T09:50:28.918Z,2.45
2018-02-06T09:51:35.046Z,2.48
2018-02-06T09:52:41.166Z,2.57
2018-02-06T09:53:47.209Z,2.64
2018-02-06T09:54:53.274Z,2.67
2018-02-06T09:55:58.888Z,2.61
2018-02-06T09:57:05.456Z,2.47
2018-02-06T09:58:11.552Z,2.35
2018-02-06T09:59:17.179Z,2.15
2018-02-06T10:00:23.704Z,1.99
2018-02-06T10:01:29.804Z,1.93
2018-02-06T10:02:35.382Z,1.91
2018-02-06T10:03:42.021Z,1.86
2018-02-06T10:04:48.072Z,1.80
2018-02-06T10:05:53.624Z,1.79
2018-02-06T10:07:00.249Z,1.85
2018-02-06T10:08:06.305Z,1.88
2018-02-06T10:09:12.411Z,1.85
2018-02-06T10:10:18.430Z,1.90
2018-02-06T10:11:24.042Z,1.95
2018-02-06T10:12:30.605Z,2.03
2018-02-06T10:13:36.680Z,2.07
2018-02-06T10:14:42.852Z,2.09
2018-02-06T10:15:48.352Z,2.08
2018-02-06T10:16:54.425Z,2.03
2018-02-06T10:18:01.081Z,2.00
2018-02-06T10:19:07.174Z,1.93
2018-02-06T10:20:13.190Z,1.86
2018-02-06T10:21:18.749Z,1.74
2018-02-06T10:22:25.320Z,1.64
2018-02-06T10:23:31.420Z,1.58
2018-02-06T10:24:37.522Z,1.57
2018-02-06T10:25:43.559Z,1.62
2018-02-06T10:26:49.146Z,1.66
2018-02-06T10:27:55.221Z,1.70
2018-02-06T10:29:01.827Z,1.71
2018-02-06T10:30:07.908Z,1.75
2018-02-06T10:31:13.444Z,1.82
2018-02-06T10:32:20.534Z,1.88
2018-02-06T10:33:25.609Z,1.95
2018-02-06T10:34:31.721Z,2.02
2018-02-06T10:35:38.286Z,2.10
2018-02-06T10:36:43.847Z,2.16
2018-02-06T10:37:50.430Z,2.26
2018-02-06T10:38:56.045Z,2.34
2018-02-06T10:40:02.653Z,2.35
2018-02-06T10:41:08.260Z,2.37
2018-02-06T10:42:14.796Z,2.41
2018-02-06T10:43:20.373Z,2.48
2018-02-06T10:44:27.058Z,2.49
2018-02-06T10:45:32.557Z,2.52
2018-02-06T10:46:39.148Z,2.55
2018-02-06T10:47:45.233Z,2.48
2018-02-06T10:48:51.313Z,2.44
2018-02-06T10:49:56.919Z,2.44
2018-02-06T10:51:03.045Z,2.39
2018-02-06T10:52:09.576Z,2.26
2018-02-06T10:53:15.694Z,2.22
2018-02-06T10:54:21.276Z,2.26
2018-02-06T10:55:27.363Z,2.30
2018-02-06T10:56:33.963Z,2.38
2018-02-06T10:57:40.049Z,2.49
2018-02-06T10:58:45.648Z,2.60
2018-02-06T10:59:52.244Z,2.66
2018-02-06T11:00:58.410Z,2.67
2018-02-06T11:02:03.932Z,2.70
2018-02-06T11:03:10.533Z,2.81
2018-02-06T11:04:16.132Z,2.92
2018-02-06T11:05:22.773Z,3.00
2018-02-06T11:06:28.883Z,3.06
2018-02-06T11:07:34.445Z,3.11
2018-02-06T11:08:40.541Z,3.19
2018-02-06T11:09:47.177Z,3.24
2018-02-06T11:10:52.754Z,3.21
2018-02-06T11:11:59.459Z,3.09
2018-02-06T11:13:04.998Z,3.00
2018-02-06T11:14:11.082Z,3.00
2018-02-06T11:15:17.713Z,3.00
2018-02-06T11:16:23.422Z,3.07
2018-02-06T11:17:29.404Z,3.22
2018-02-06T11:18:35.530Z,3.34
2018-02-06T11:19:41.635Z,3.38
2018-02-06T11:20:48.777Z,3.43
2018-02-06T11:21:54.379Z,3.45
2018-02-06T11:23:00.484Z,3.41
2018-02-06T11:24:06.608Z,3.37
2018-02-06T11:25:12.233Z,3.36
2018-02-06T11:26:18.343Z,3.27
2018-02-06T11:27:24.956Z,3.25
2018-02-06T11:28:31.150Z,3.22
2018-02-06T11:29:37.164Z,3.27
2018-02-06T11:30:42.785Z,3.41
2018-02-06T11:31:49.443Z,3.56
2018-02-06T11:32:55.102Z,3.71
2018-02-06T11:34:01.644Z,3.82
2018-02-06T11:35:07.774Z,3.93
2018-02-06T11:36:13.900Z,4.00
2018-02-06T11:37:20.035Z,4.09
2018-02-06T11:38:26.147Z,4.24
2018-02-06T11:39:32.286Z,4.44
2018-02-06T11:40:38.428Z,4.65
2018-02-06T11:41:44.094Z,4.85
2018-02-06T11:42:50.241Z,4.95
2018-02-06T11:43:56.881Z,5.01
2018-02-06T11:45:02.487Z,5.13
2018-02-06T11:46:08.632Z,5.18
2018-02-06T11:47:14.810Z,5.20
2018-02-06T11:48:20.959Z,5.17
2018-02-06T11:49:27.614Z,5.12
2018-02-06T11:50:33.782Z,5.05
2018-02-06T11:51:39.948Z,4.92
2018-02-06T11:52:45.583Z,4.82
2018-02-06T11:53:52.225Z,4.72
2018-02-06T11:54:58.372Z,4.55
2018-02-06T11:56:04.549Z,4.42
2018-02-06T11:57:10.725Z,4.39
2018-02-06T11:58:16.347Z,4.45
2018-02-06T11:59:22.498Z,4.56
2018-02-06T12:00:28.653Z,4.74
2018-02-06T12:01:35.298Z,4.94
2018-02-06T12:02:41.493Z,5.09
2018-02-06T12:03:47.624Z,5.19
2018-02-06T12:04:53.291Z,5.31
2018-02-06T12:05:59.438Z,5.36
2018-02-06T12:07:05.684Z,5.28
2018-02-06T12:08:12.277Z,5.21
2018-02-06T12:09:18.449Z,5.15
2018-02-06T12:10:24.648Z,5.06
2018-02-06T12:11:30.769Z,4.94
2018-02-06T12:12:36.964Z,4.81
2018-02-06T12:13:42.611Z,4.67
2018-02-06T12:14:49.268Z,4.58
2018-02-06T12:15:54.937Z,4.58
2018-02-06T12:17:01.224Z,4.42
2018-02-06T12:18:07.785Z,4.28
2018-02-06T12:19:13.906Z,4.16
2018-02-06T12:20:19.566Z,4.01
2018-02-06T12:21:25.691Z,3.87
2018-02-06T12:22:31.869Z,3.77
2018-02-06T12:23:38.564Z,3.63
2018-02-06T12:24:44.142Z,3.51
2018-02-06T12:25:50.283Z,3.43
2018-02-06T12:26:56.437Z,3.32
2018-02-06T12:28:03.036Z,3.26
2018-02-06T12:29:08.674Z,3.18
2018-02-06T12:30:14.812Z,3.09
2018-02-06T12:31:21.423Z,2.99
2018-02-06T12:32:27.576Z,2.88
2018-02-06T12:33:33.686Z,2.79
2018-02-06T12:34:39.809Z,2.76
2018-02-06T12:35:45.948Z,2.78
2018-02-06T12:36:51.565Z,2.79
2018-02-06T12:37:57.680Z,2.78
2018-02-06T12:39:03.779Z,2.73
2018-02-06T12:40:09.896Z,2.67
2018-02-06T12:41:16.116Z,2.60
2018-02-06T12:42:22.137Z,2.54
2018-02-06T12:43:28.230Z,2.48
2018-02-06T12:44:34.867Z,2.38
2018-02-06T12:45:40.453Z,2.29
2018-02-06T12:46:47.035Z,2.18
2018-02-06T12:47:53.186Z,2.11
2018-02-06T12:48:59.250Z,2.06
2018-02-06T12:50:05.362Z,2.06
2018-02-06T12:51:11.438Z,2.08
2018-02-06T12:52:17.577Z,2.10
2018-02-06T12:53:23.160Z,2.10
2018-02-06T12:54:29.751Z,2.06
2018-02-06T12:55:35.343Z,2.02
2018-02-06T12:56:41.917Z,2.00
2018-02-06T12:57:48.046Z,1.98
2018-02-06T12:58:54.097Z,1.99
2018-02-06T13:00:00.208Z,2.03
2018-02-06T13:01:06.280Z,2.04
2018-02-06T13:02:12.402Z,2.06
2018-02-06T13:03:17.968Z,2.04
2018-02-06T13:04:24.545Z,2.04
2018-02-06T13:05:30.146Z,2.03
2018-02-06T13:06:36.723Z,2.03
2018-02-06T13:07:42.328Z,2.01
2018-02-06T13:08:48.895Z,2.00
2018-02-06T13:09:54.513Z,1.96
2018-02-06T13:11:00.586Z,1.95
2018-02-06T13:12:07.173Z,1.97
2018-02-06T13:13:13.236Z,1.98
2018-02-06T13:14:19.314Z,2.00
2018-02-06T13:15:24.916Z,1.99
2018-02-06T13:16:30.995Z,2.00
2018-02-06T13:17:37.177Z,2.00
2018-02-06T13:18:43.649Z,1.94
2018-02-06T13:19:49.253Z,1.88
2018-02-06T13:20:55.330Z,1.82
2018-02-06T13:22:01.445Z,1.77
2018-02-06T13:23:07.985Z,1.70
2018-02-06T13:24:14.083Z,1.62
2018-02-06T13:25:20.138Z,1.51
2018-02-06T13:26:25.773Z,1.42
2018-02-06T13:27:31.835Z,1.28
2018-02-06T13:28:37.903Z,1.15
2018-02-06T13:29:44.457Z,1.09
2018-02-06T13:30:50.549Z,1.06
2018-02-06T13:31:56.131Z,0.98
2018-02-06T13:33:02.207Z,0.92
2018-02-06T13:34:08.777Z,0.87
2018-02-06T13:35:14.340Z,0.80
2018-02-06T13:36:20.423Z,0.75
2018-02-06T13:37:27.001Z,0.71
2018-02-06T13:38:32.554Z,0.67
2018-02-06T13:39:38.615Z,0.61
2018-02-06T13:40:45.196Z,0.57
2018-02-06T13:41:51.255Z,0.54
2018-02-06T13:42:56.847Z,0.50
2018-02-06T13:44:02.895Z,0.48
2018-02-06T13:45:09.461Z,0.48
2018-02-06T13:46:15.034Z,0.45
2018-02-06T13:47:21.182Z,0.43
2018-02-06T13:48:27.644Z,0.42
2018-02-06T13:49:34.243Z,0.42
2018-02-06T13:50:39.290Z,0.41
2018-02-06T13:51:45.865Z,0.44
2018-02-06T13:52:51.893Z,0.43
2018-02-06T13:53:57.982Z,0.45
2018-02-06T13:55:03.988Z,0.45
2018-02-06T13:56:09.546Z,0.43
2018-02-06T13:57:15.631Z,0.38
2018-02-06T13:58:22.157Z,0.36
2018-02-06T13:59:28.202Z,0.33
2018-02-06T14:00:34.263Z,0.32
2018-02-06T14:01:39.868Z,0.28
2018-02-06T14:02:46.386Z,0.28
2018-02-06T14:03:52.429Z,0.30
2018-02-06T14:04:58.528Z,0.31
2018-02-06T14:06:04.049Z,0.32
2018-02-06T14:07:10.198Z,0.32
2018-02-06T14:08:16.667Z,0.32
2018-02-06T14:09:22.195Z,0.35
2018-02-06T14:10:28.246Z,0.37
2018-02-06T14:11:34.338Z,0.40
2018-02-06T14:12:41.351Z,0.41
2018-02-06T14:13:46.903Z,0.44
2018-02-06T14:14:52.949Z,0.45
2018-02-06T14:15:59.000Z,0.44
2018-02-06T14:17:05.169Z,0.46
2018-02-06T14:18:11.209Z,0.52
2018-02-06T14:19:17.163Z,0.58
2018-02-06T14:20:23.202Z,0.64
2018-02-06T14:21:29.250Z,0.70
2018-02-06T14:22:35.326Z,0.74
2018-02-06T14:23:41.346Z,0.76
2018-02-06T14:24:47.399Z,0.80
2018-02-06T14:25:53.498Z,0.83
2018-02-06T14:26:59.577Z,0.87
2018-02-06T14:28:05.579Z,0.87
2018-02-06T14:29:11.652Z,0.85
2018-02-06T14:30:17.182Z,0.83
2018-02-06T14:31:23.715Z,0.80
2018-02-06T14:32:29.497Z,0.80
2018-02-06T14:33:35.337Z,0.81
2018-02-06T14:34:41.390Z,0.81
2018-02-06T14:35:47.489Z,0.80
2018-02-06T14:36:54.005Z,0.80
2018-02-06T14:38:00.064Z,0.81
2018-02-06T14:39:06.084Z,0.79
2018-02-06T14:40:12.153Z,0.77
2018-02-06T14:41:17.720Z,0.76
2018-02-06T14:42:23.754Z,0.76
2018-02-06T14:43:29.872Z,0.74
2018-02-06T14:44:36.348Z,0.73
2018-02-06T14:45:42.419Z,0.71
2018-02-06T14:46:48.477Z,0.67
2018-02-06T14:47:54.548Z,0.64
2018-02-06T14:49:00.611Z,0.59
2018-02-06T14:50:06.615Z,0.56
2018-02-06T14:51:12.678Z,0.54
2018-02-06T14:52:18.706Z,0.53
2018-02-06T14:53:24.792Z,0.52
2018-02-06T14:54:30.833Z,0.49
2018-02-06T14:55:36.386Z,0.47
2018-02-06T14:56:42.929Z,0.44
2018-02-06T14:57:48.979Z,0.43
2018-02-06T14:58:54.519Z,0.43
2018-02-06T15:00:00.570Z,0.43
2018-02-06T15:01:06.609Z,0.42
2018-02-06T15:02:13.185Z,0.40
2018-02-06T15:03:18.862Z,0.39
2018-02-06T15:04:24.762Z,0.38
2018-02-06T15:05:30.818Z,0.37
2018-02-06T15:06:37.350Z,0.38
2018-02-06T15:07:43.504Z,0.38
2018-02-06T15:08:49.452Z,0.38
2018-02-06T15:09:55.490Z,0.40
2018-02-06T15:11:01.111Z,0.40
2018-02-06T15:12:07.202Z,0.39
2018-02-06T15:13:13.637Z,0.37
2018-02-06T15:14:19.662Z,0.35
2018-02-06T15:15:25.704Z,0.33
2018-02-06T15:16:31.745Z,0.32
2018-02-06T15:17:37.317Z,0.30
2018-02-06T15:18:43.407Z,0.30
2018-02-06T15:19:49.832Z,0.29
2018-02-06T15:20:56.021Z,0.28
2018-02-06T15:22:01.942Z,0.27
2018-02-06T15:23:08.003Z,0.23
2018-02-06T15:24:14.032Z,0.21
2018-02-06T15:25:19.642Z,0.20
2018-02-06T15:26:25.607Z,0.19
2018-02-06T15:27:31.683Z,0.19
2018-02-06T15:28:38.209Z,0.20
2018-02-06T15:29:44.219Z,0.21
2018-02-06T15:30:50.254Z,0.20
2018-02-06T15:31:55.793Z,0.20
2018-02-06T15:33:02.339Z,0.19
2018-02-06T15:34:07.873Z,0.18
2018-02-06T15:35:13.913Z,0.17
2018-02-06T15:36:20.424Z,0.17
2018-02-06T15:37:26.059Z,0.17
2018-02-06T15:38:32.054Z,0.16
2018-02-06T15:39:38.595Z,0.15
2018-02-06T15:40:44.595Z,0.16
2018-02-06T15:41:50.630Z,0.17
2018-02-06T15:42:56.727Z,0.18
2018-02-06T15:44:02.702Z,0.19
2018-02-06T15:45:08.224Z,0.21
2018-02-06T15:46:14.253Z,0.21
2018-02-06T15:47:20.789Z,0.22
2018-02-06T15:48:26.847Z,0.23
2018-02-06T15:49:32.855Z,0.20
2018-02-06T15:50:38.938Z,0.18
2018-02-06T15:51:44.497Z,0.14
2018-02-06T15:52:50.467Z,0.11
2018-02-06T15:53:56.627Z,0.11
2018-02-06T15:55:03.016Z,0.09
2018-02-06T15:56:09.036Z,0.07
2018-02-06T15:57:15.159Z,0.05
2018-02-06T15:58:21.235Z,0.04
2018-02-06T15:59:27.386Z,0.04
2018-02-06T16:00:32.672Z,0.05
2018-02-06T16:01:39.189Z,0.05
2018-02-06T16:02:45.263Z,0.05
2018-02-06T16:03:51.281Z,0.03
2018-02-06T16:04:56.814Z,-0.02
2018-02-06T16:06:02.846Z,-0.06
2018-02-06T16:07:08.887Z,-0.11
2018-02-06T16:08:14.906Z,-0.14
2018-02-06T16:09:21.422Z,-0.18
2018-02-06T16:10:27.417Z,-0.21
2018-02-06T16:11:33.443Z,-0.24
2018-02-06T16:12:39.472Z,-0.25
2018-02-06T16:13:45.529Z,-0.29
2018-02-06T16:14:51.530Z,-0.31
2018-02-06T16:15:57.076Z,-0.32
2018-02-06T16:17:03.657Z,-0.34
2018-02-06T16:18:09.650Z,-0.36
2018-02-06T16:19:15.616Z,-0.37
2018-02-06T16:20:21.293Z,-0.37
2018-02-06T16:21:27.682Z,-0.38
2018-02-06T16:22:33.722Z,-0.40
2018-02-06T16:23:39.724Z,-0.41
2018-02-06T16:24:45.707Z,-0.43
2018-02-06T16:25:51.751Z,-0.43
2018-02-06T16:26:57.744Z,-0.45
2018-02-06T16:28:03.866Z,-0.45
2018-02-06T16:29:09.797Z,-0.46
2018-02-06T16:30:15.815Z,-0.46
2018-02-06T16:31:21.822Z,-0.48